createdAt,value
2023-08-29T00:01:20.159Z,3.38
2023-08-29T00:03:47.487Z,4.13
2023-08-29T00:06:14.679Z,2.92
2023-08-29T00:08:41.925Z,4.88
2023-08-29T00:11:09.145Z,2.17
2023-08-29T00:13:36.458Z,5.25
2023-08-29T00:16:04.203Z,2.92
2023-08-29T00:18:31.518Z,3.05
2023-08-29T00:20:58.755Z,3.28
2023-08-29T00:23:25.923Z,3.03
2023-08-29T00:25:53.170Z,3.20
2023-08-29T00:28:21.054Z,2.15
2023-08-29T00:30:48.543Z,2.20
2023-08-29T00:33:15.763Z,5.28
2023-08-29T00:35:42.955Z,2.42
2023-08-29T00:40:39.696Z,4.47
2023-08-29T00:43:07.029Z,3.28
2023-08-29T00:45:40.525Z,4.20
2023-08-29T00:48:09.836Z,3.00
2023-08-29T00:50:39.022Z,3.95
2023-08-29T00:53:07.546Z,3.22
2023-08-29T00:55:36.431Z,2.42
2023-08-29T00:58:05.289Z,2.60
2023-08-29T01:00:35.059Z,3.17
2023-08-29T01:03:04.001Z,2.80
2023-08-29T01:05:34.040Z,3.10
2023-08-29T01:08:02.856Z,2.92
2023-08-29T01:11:07.392Z,2.45
2023-08-29T01:13:55.370Z,2.13
2023-08-29T01:16:37.842Z,3.20
2023-08-29T01:19:16.317Z,2.13
2023-08-29T01:22:26.744Z,2.67
2023-08-29T01:25:53.235Z,2.55
2023-08-29T01:28:24.214Z,3.65
2023-08-29T01:30:52.302Z,1.70
2023-08-29T01:33:21.032Z,2.75
2023-08-29T01:35:48.974Z,2.85
2023-08-29T01:38:19.349Z,2.10
2023-08-29T01:40:47.003Z,1.55
2023-08-29T01:43:14.308Z,1.75
2023-08-29T01:45:41.696Z,1.77
2023-08-29T01:48:12.549Z,2.88
2023-08-29T01:50:42.792Z,1.30
2023-08-29T01:53:10.356Z,2.17
2023-08-29T01:55:40.119Z,2.65
2023-08-29T01:58:09.035Z,2.30
2023-08-29T02:00:38.109Z,1.35
2023-08-29T02:03:05.770Z,1.88
2023-08-29T02:05:33.431Z,2.13
2023-08-29T02:08:00.743Z,2.03
2023-08-29T02:10:32.053Z,2.35
2023-08-29T02:12:59.378Z,2.47
2023-08-29T02:15:26.637Z,1.65
2023-08-29T02:17:54.544Z,1.17
2023-08-29T02:20:22.038Z,1.42
2023-08-29T02:22:49.316Z,1.65
2023-08-29T02:25:16.719Z,2.95
2023-08-29T02:27:43.902Z,2.35
2023-08-29T02:30:11.832Z,2.45
2023-08-29T02:32:40.972Z,2.80
2023-08-29T02:35:09.553Z,1.65
2023-08-29T02:37:36.937Z,1.73
2023-08-29T02:40:11.420Z,2.17
2023-08-29T02:45:06.779Z,2.38
2023-08-29T02:47:34.014Z,2.33
2023-08-29T02:50:01.230Z,3.38
2023-08-29T02:52:28.546Z,1.88
2023-08-29T02:54:55.962Z,1.55
2023-08-29T02:57:25.802Z,2.45
2023-08-29T02:59:53.229Z,3.00
2023-08-29T03:02:21.090Z,1.85
2023-08-29T03:04:48.305Z,2.25
2023-08-29T03:07:15.661Z,1.63
2023-08-29T03:09:42.847Z,1.98
2023-08-29T03:12:10.156Z,1.27
2023-08-29T03:14:37.615Z,3.63
2023-08-29T03:17:04.904Z,2.17
2023-08-29T03:19:32.296Z,1.60
2023-08-29T03:21:59.493Z,2.13
2023-08-29T03:24:27.068Z,2.33
2023-08-29T03:26:54.297Z,2.72
2023-08-29T03:29:21.813Z,2.20
2023-08-29T03:31:49.282Z,4.88
2023-08-29T03:34:16.744Z,2.65
2023-08-29T03:36:45.627Z,3.05
2023-08-29T03:39:13.136Z,4.72
2023-08-29T03:41:40.325Z,3.97
2023-08-29T03:44:09.371Z,2.22
2023-08-29T03:46:36.625Z,3.63
2023-08-29T03:49:05.013Z,2.42
2023-08-29T03:51:32.224Z,4.25
2023-08-29T03:53:59.646Z,2.25
2023-08-29T03:56:28.032Z,5.07
2023-08-29T03:58:55.289Z,2.35
2023-08-29T04:01:22.606Z,5.03
2023-08-29T04:03:53.571Z,2.35
2023-08-29T04:06:22.157Z,3.22
2023-08-29T04:08:49.418Z,5.07
2023-08-29T04:11:16.817Z,2.97
2023-08-29T04:13:44.256Z,4.32
2023-08-29T04:16:11.537Z,3.58
2023-08-29T04:18:38.932Z,2.78
2023-08-29T04:21:06.141Z,4.20
2023-08-29T04:23:33.413Z,2.83
2023-08-29T04:26:02.246Z,2.35
2023-08-29T04:28:29.731Z,2.88
2023-08-29T04:31:07.665Z,4.40
2023-08-29T04:33:34.928Z,3.38
2023-08-29T04:36:02.136Z,7.18
2023-08-29T04:38:29.981Z,2.78
2023-08-29T04:40:57.290Z,6.25
2023-08-29T04:43:24.648Z,4.03
2023-08-29T04:45:53.444Z,3.70
2023-08-29T04:48:20.697Z,2.47
2023-08-29T04:50:47.907Z,2.53
2023-08-29T04:53:16.580Z,3.25
2023-08-29T04:55:44.541Z,2.70
2023-08-29T04:58:11.894Z,2.53
2023-08-29T05:00:39.287Z,3.05
2023-08-29T05:03:06.745Z,3.03
2023-08-29T05:05:34.121Z,3.00
2023-08-29T05:08:05.474Z,4.32
2023-08-29T05:10:33.209Z,3.03
2023-08-29T05:13:00.410Z,3.17
2023-08-29T05:15:27.719Z,4.82
2023-08-29T05:17:55.120Z,4.47
2023-08-29T05:21:00.767Z,4.15
2023-08-29T05:23:48.181Z,2.75
2023-08-29T05:26:21.816Z,4.45
2023-08-29T05:28:57.667Z,5.70
2023-08-29T05:31:27.076Z,5.22
2023-08-29T05:33:54.762Z,4.72
2023-08-29T05:36:26.107Z,4.47
2023-08-29T05:39:01.807Z,3.20
2023-08-29T05:41:55.876Z,3.50
2023-08-29T05:44:23.432Z,4.07
2023-08-29T05:46:50.703Z,3.35
2023-08-29T05:49:17.947Z,4.13
2023-08-29T05:51:46.264Z,4.60
2023-08-29T05:54:13.496Z,3.78
2023-08-29T05:56:41.018Z,4.78
2023-08-29T05:59:08.383Z,5.47
2023-08-29T06:01:36.398Z,3.47
2023-08-29T06:04:05.721Z,3.85
2023-08-29T06:06:33.248Z,4.25
2023-08-29T06:09:00.832Z,4.38
2023-08-29T06:11:29.809Z,4.20
2023-08-29T06:13:57.074Z,3.83
2023-08-29T06:16:24.389Z,4.50
2023-08-29T06:18:51.660Z,5.32
2023-08-29T06:21:19.929Z,4.18
2023-08-29T06:26:17.160Z,3.90
2023-08-29T06:28:44.546Z,4.70
2023-08-29T06:31:11.895Z,4.57
2023-08-29T06:33:41.470Z,5.78
2023-08-29T06:36:08.833Z,6.35
2023-08-29T06:38:36.131Z,3.55
2023-08-29T06:41:04.326Z,3.25
2023-08-29T06:45:59.204Z,3.95
2023-08-29T06:48:26.855Z,3.63
2023-08-29T06:50:54.261Z,2.55
2023-08-29T06:53:21.833Z,2.80
2023-08-29T06:55:51.201Z,3.70
2023-08-29T06:58:18.518Z,3.63
2023-08-29T07:00:45.800Z,2.67
2023-08-29T07:03:13.407Z,3.30
2023-08-29T07:05:40.966Z,3.45
2023-08-29T07:08:11.960Z,4.18
2023-08-29T07:10:39.285Z,2.42
2023-08-29T07:13:06.576Z,2.38
2023-08-29T07:15:33.782Z,4.28
2023-08-29T07:18:01.651Z,4.38
2023-08-29T07:20:31.291Z,3.72
2023-08-29T07:22:58.916Z,3.35
2023-08-29T07:25:43.640Z,4.55
2023-08-29T07:28:16.841Z,3.30
2023-08-29T07:30:53.702Z,2.92
2023-08-29T07:33:21.491Z,3.55
2023-08-29T07:35:49.668Z,3.20
2023-08-29T07:40:47.906Z,2.65
2023-08-29T07:43:16.765Z,4.35
2023-08-29T07:45:44.237Z,3.55
2023-08-29T07:48:11.897Z,4.28
2023-08-29T07:50:39.335Z,3.72
2023-08-29T07:53:06.679Z,3.40
2023-08-29T07:55:33.916Z,5.00
2023-08-29T07:58:02.820Z,4.43
2023-08-29T08:00:30.565Z,4.93
2023-08-29T08:02:57.944Z,4.47
2023-08-29T08:05:26.139Z,5.35
2023-08-29T08:07:54.185Z,3.38
2023-08-29T08:10:21.747Z,4.05
2023-08-29T08:12:49.404Z,4.03
2023-08-29T08:15:17.814Z,5.55
2023-08-29T08:17:46.247Z,4.03
2023-08-29T08:20:13.868Z,3.70
2023-08-29T08:22:42.745Z,3.55
2023-08-29T08:25:11.289Z,3.92
2023-08-29T08:27:41.447Z,3.60
2023-08-29T08:30:09.909Z,4.13
2023-08-29T08:32:37.512Z,3.75
2023-08-29T08:35:07.803Z,4.72
2023-08-29T08:37:36.994Z,4.25
2023-08-29T08:40:11.981Z,4.60
2023-08-29T08:42:42.382Z,4.85
2023-08-29T08:45:11.546Z,4.80
2023-08-29T08:47:40.059Z,4.78
2023-08-29T08:50:12.755Z,6.03
2023-08-29T08:52:43.117Z,5.88
2023-08-29T08:55:10.642Z,4.50
2023-08-29T08:57:38.872Z,5.93
2023-08-29T09:02:38.906Z,7.18
2023-08-29T09:05:09.902Z,4.95
2023-08-29T09:07:42.858Z,6.28
2023-08-29T09:10:17.883Z,6.95
2023-08-29T09:12:56.487Z,5.57
2023-08-29T09:15:26.758Z,8.68
2023-08-29T09:17:55.731Z,4.93
2023-08-29T09:20:31.726Z,5.90
2023-08-29T09:22:59.185Z,5.30
2023-08-29T09:25:27.616Z,6.70
2023-08-29T09:27:55.373Z,4.85
2023-08-29T09:30:23.104Z,6.70
2023-08-29T09:32:52.728Z,6.88
2023-08-29T09:35:24.268Z,4.35
2023-08-29T09:37:55.194Z,4.57
2023-08-29T09:43:03.923Z,4.00
2023-08-29T09:45:33.764Z,4.97
2023-08-29T09:48:09.469Z,3.42
2023-08-29T09:50:38.448Z,4.25
2023-08-29T09:53:06.826Z,3.35
2023-08-29T09:55:50.566Z,3.70
2023-08-29T09:58:18.979Z,4.35
2023-08-29T10:00:47.184Z,3.90
2023-08-29T10:03:15.688Z,3.67
2023-08-29T10:05:46.388Z,3.42
2023-08-29T10:08:44.161Z,4.00
2023-08-29T10:11:11.461Z,4.10
2023-08-29T10:13:42.496Z,3.17
2023-08-29T10:16:10.668Z,2.95
2023-08-29T10:18:38.596Z,2.80
2023-08-29T10:21:06.513Z,4.38
2023-08-29T10:23:36.832Z,2.83
2023-08-29T10:26:07.407Z,3.15
2023-08-29T10:28:36.830Z,3.95
2023-08-29T10:31:06.978Z,3.42
2023-08-29T10:33:38.287Z,2.63
2023-08-29T10:36:10.409Z,4.90
2023-08-29T10:38:41.317Z,5.38
2023-08-29T10:41:09.056Z,5.45
2023-08-29T10:43:36.869Z,2.92
2023-08-29T10:46:24.541Z,4.78
2023-08-29T10:48:52.886Z,3.67
2023-08-29T10:51:25.976Z,3.08
2023-08-29T10:53:55.435Z,3.30
2023-08-29T10:56:29.279Z,2.65
2023-08-29T10:58:56.989Z,3.60
2023-08-29T11:01:28.299Z,2.30
2023-08-29T11:03:59.568Z,2.88
2023-08-29T11:06:51.696Z,2.33
2023-08-29T11:09:24.870Z,2.15
2023-08-29T11:12:13.955Z,4.03
2023-08-29T11:14:58.267Z,3.42
2023-08-29T11:17:27.515Z,4.43
2023-08-29T11:20:03.043Z,4.35
2023-08-29T11:22:31.064Z,3.25
2023-08-29T11:24:59.633Z,3.58
2023-08-29T11:27:32.123Z,1.92
2023-08-29T11:32:34.749Z,3.97
2023-08-29T11:35:01.966Z,1.55
2023-08-29T11:37:32.215Z,2.58
2023-08-29T11:40:03.282Z,3.05
2023-08-29T11:42:51.994Z,4.30
2023-08-29T11:45:45.718Z,2.35
2023-08-29T11:48:12.262Z,3.45
2023-08-29T11:50:42.858Z,3.03
2023-08-29T11:53:10.205Z,2.80
2023-08-29T11:55:39.410Z,3.00
2023-08-29T11:58:07.965Z,4.00
2023-08-29T12:00:35.480Z,2.97
2023-08-29T12:03:02.997Z,2.30
2023-08-29T12:05:32.161Z,3.33
2023-08-29T12:07:59.503Z,2.65
2023-08-29T12:10:28.164Z,2.35
2023-08-29T12:12:56.606Z,1.95
2023-08-29T12:15:43.721Z,1.65
2023-08-29T12:18:23.757Z,2.50
2023-08-29T12:20:52.017Z,2.67
2023-08-29T12:23:29.695Z,1.95
2023-08-29T12:25:59.427Z,1.70
2023-08-29T12:28:27.449Z,2.20
2023-08-29T12:33:24.861Z,1.25
2023-08-29T12:35:52.660Z,1.38
2023-08-29T12:38:21.273Z,1.95
2023-08-29T12:40:48.492Z,3.08
2023-08-29T12:43:18.156Z,1.92
2023-08-29T12:45:58.361Z,1.00
2023-08-29T12:48:28.422Z,2.65
2023-08-29T12:53:23.834Z,2.03
2023-08-29T12:55:54.931Z,1.58
2023-08-29T12:58:22.219Z,1.67
2023-08-29T13:00:49.539Z,2.00
2023-08-29T13:03:19.313Z,1.83
2023-08-29T13:05:48.137Z,1.60
2023-08-29T13:08:16.727Z,1.92
2023-08-29T13:10:44.200Z,2.63
2023-08-29T13:13:11.408Z,1.27
2023-08-29T13:15:50.498Z,3.20
2023-08-29T13:18:25.377Z,3.17
2023-08-29T13:20:53.008Z,2.70
2023-08-29T13:23:20.388Z,1.13
2023-08-29T13:25:48.996Z,2.25
2023-08-29T13:28:16.739Z,2.13
2023-08-29T13:30:44.092Z,2.75
2023-08-29T13:33:12.815Z,2.88
2023-08-29T13:35:40.442Z,1.75
2023-08-29T13:38:10.936Z,0.85
2023-08-29T13:40:42.809Z,2.38
2023-08-29T13:43:12.212Z,1.17
2023-08-29T13:45:39.534Z,2.45
2023-08-29T13:48:08.424Z,0.93
2023-08-29T13:50:38.968Z,1.63
2023-08-29T13:53:08.369Z,2.80
2023-08-29T13:55:36.202Z,0.88
2023-08-29T13:58:06.982Z,2.28
2023-08-29T14:00:35.502Z,1.08
2023-08-29T14:03:03.461Z,2.60
2023-08-29T14:05:33.004Z,1.90
2023-08-29T14:08:05.345Z,2.83
2023-08-29T14:10:36.923Z,1.63
2023-08-29T14:13:04.558Z,2.65
2023-08-29T14:15:31.889Z,1.23
2023-08-29T14:18:01.963Z,0.52
2023-08-29T14:20:29.256Z,1.25
2023-08-29T14:23:01.942Z,2.72
2023-08-29T14:25:29.572Z,1.42
2023-08-29T14:28:05.975Z,1.75
2023-08-29T14:30:33.539Z,1.50
2023-08-29T14:33:02.694Z,0.52
2023-08-29T14:35:33.929Z,1.25
2023-08-29T14:38:01.188Z,0.57
2023-08-29T14:40:39.495Z,0.43
2023-08-29T14:43:07.188Z,0.90
2023-08-29T14:45:42.038Z,2.00
2023-08-29T14:48:10.659Z,1.25
2023-08-29T14:50:37.978Z,1.38
2023-08-29T14:53:05.205Z,1.02
2023-08-29T14:55:39.892Z,2.58
2023-08-29T14:58:07.504Z,2.78
2023-08-29T15:00:35.058Z,2.03
2023-08-29T15:03:10.399Z,1.10
2023-08-29T15:05:38.112Z,0.40
2023-08-29T15:08:18.028Z,1.35
2023-08-29T15:10:46.020Z,1.45
2023-08-29T15:13:16.808Z,1.42
2023-08-29T15:15:45.669Z,1.42
2023-08-29T15:18:14.950Z,0.63
2023-08-29T15:20:44.031Z,1.05
2023-08-29T15:23:13.962Z,2.20
2023-08-29T15:25:41.714Z,0.50
2023-08-29T15:28:12.534Z,1.70
2023-08-29T15:30:40.485Z,1.15
2023-08-29T15:35:35.141Z,1.85
2023-08-29T15:38:03.199Z,1.33
2023-08-29T15:40:30.640Z,1.92
2023-08-29T15:43:00.628Z,1.63
2023-08-29T15:45:28.405Z,2.67
2023-08-29T15:47:56.920Z,2.03
2023-08-29T15:50:29.645Z,1.65
2023-08-29T15:52:57.038Z,1.60
2023-08-29T15:55:24.315Z,1.80
2023-08-29T15:57:53.015Z,1.48
2023-08-29T16:00:20.860Z,1.65
2023-08-29T16:02:49.560Z,3.00
2023-08-29T16:05:17.089Z,1.02
2023-08-29T16:07:47.633Z,1.35
2023-08-29T16:10:15.915Z,1.45
2023-08-29T16:12:46.597Z,1.52
2023-08-29T16:15:17.691Z,3.38
2023-08-29T16:17:45.196Z,0.80
2023-08-29T16:20:14.247Z,0.80
2023-08-29T16:22:41.708Z,1.23
2023-08-29T16:25:10.160Z,1.02
2023-08-29T16:27:39.317Z,1.17
2023-08-29T16:30:08.815Z,0.95
2023-08-29T16:32:39.044Z,1.65
2023-08-29T16:35:07.676Z,0.93
2023-08-29T16:37:39.201Z,1.90
2023-08-29T16:40:11.076Z,1.77
2023-08-29T16:42:38.929Z,3.25
2023-08-29T16:45:07.931Z,1.10
2023-08-29T16:47:35.409Z,1.60
2023-08-29T16:50:03.033Z,1.30
2023-08-29T16:52:30.270Z,1.20
2023-08-29T16:54:57.707Z,1.75
2023-08-29T16:57:25.589Z,2.03
2023-08-29T17:00:00.594Z,3.83
2023-08-29T17:02:28.731Z,3.90
2023-08-29T17:07:24.092Z,2.30
2023-08-29T17:09:52.267Z,1.02
2023-08-29T17:12:23.757Z,1.30
2023-08-29T17:14:52.731Z,2.45
2023-08-29T17:17:21.124Z,3.45
2023-08-29T17:19:48.515Z,2.05
2023-08-29T17:22:15.806Z,2.30
2023-08-29T17:25:40.150Z,3.75
2023-08-29T17:28:07.648Z,2.50
2023-08-29T17:30:35.227Z,2.80
2023-08-29T17:33:03.382Z,2.67
2023-08-29T17:35:30.648Z,2.63
2023-08-29T17:37:57.906Z,2.40
2023-08-29T17:40:25.245Z,2.13
2023-08-29T17:42:52.588Z,1.77
2023-08-29T17:45:22.688Z,2.63
2023-08-29T17:47:50.018Z,1.58
2023-08-29T17:50:17.251Z,3.10
2023-08-29T17:52:45.741Z,1.95
2023-08-29T17:55:13.158Z,1.25
2023-08-29T17:57:40.509Z,1.92
2023-08-29T18:00:08.862Z,2.25
2023-08-29T18:02:37.698Z,2.03
2023-08-29T18:05:05.706Z,2.47
2023-08-29T18:10:15.510Z,1.85
2023-08-29T18:12:42.965Z,2.58
2023-08-29T18:15:11.773Z,4.05
2023-08-29T18:17:39.120Z,2.78
2023-08-29T18:20:07.770Z,2.42
2023-08-29T18:22:37.723Z,3.40
2023-08-29T18:25:06.413Z,3.53
2023-08-29T18:27:33.708Z,2.40
2023-08-29T18:30:00.941Z,2.85
2023-08-29T18:32:32.648Z,3.22
2023-08-29T18:34:59.999Z,1.85
2023-08-29T18:37:27.700Z,2.03
2023-08-29T18:39:56.450Z,3.90
2023-08-29T18:42:23.774Z,4.00
2023-08-29T18:44:51.088Z,3.50
2023-08-29T18:47:18.431Z,3.90
2023-08-29T18:49:45.660Z,5.00
2023-08-29T18:52:13.474Z,4.40
2023-08-29T18:54:40.678Z,4.68
2023-08-29T18:57:09.822Z,4.55
2023-08-29T18:59:37.048Z,4.03
2023-08-29T19:02:04.536Z,4.32
2023-08-29T19:04:31.773Z,3.40
2023-08-29T19:06:59.319Z,3.60
2023-08-29T19:09:27.898Z,2.70
2023-08-29T19:11:55.189Z,3.40
2023-08-29T19:14:23.750Z,5.68
2023-08-29T19:19:18.189Z,2.85
2023-08-29T19:21:45.489Z,4.60
2023-08-29T19:24:13.190Z,5.32
2023-08-29T19:26:41.613Z,3.25
2023-08-29T19:29:09.113Z,4.88
2023-08-29T19:31:36.989Z,4.05
2023-08-29T19:34:05.470Z,4.10
2023-08-29T19:36:33.170Z,4.18
2023-08-29T19:39:12.256Z,4.07
2023-08-29T19:41:45.642Z,3.95
2023-08-29T19:44:17.047Z,3.97
2023-08-29T19:46:46.345Z,3.03
2023-08-29T19:49:14.205Z,3.80
2023-08-29T19:51:41.584Z,4.63
2023-08-29T19:54:08.901Z,3.15
2023-08-29T19:56:36.161Z,5.65
2023-08-29T19:59:04.461Z,3.72
2023-08-29T20:01:32.874Z,4.05
2023-08-29T20:04:00.107Z,4.50
2023-08-29T20:06:29.901Z,3.50
2023-08-29T20:08:57.121Z,3.92
2023-08-29T20:11:24.503Z,4.82
2023-08-29T20:13:51.776Z,3.10
2023-08-29T20:16:19.051Z,3.47
2023-08-29T20:18:46.390Z,4.43
2023-08-29T20:21:13.913Z,4.72
2023-08-29T20:23:55.460Z,4.72
2023-08-29T20:26:28.911Z,3.90
2023-08-29T20:28:56.282Z,5.13
2023-08-29T20:31:23.711Z,5.60
2023-08-29T20:33:51.114Z,4.93
2023-08-29T20:36:18.411Z,3.92
2023-08-29T20:38:45.617Z,4.30
2023-08-29T20:41:13.134Z,4.82
2023-08-29T20:43:40.380Z,4.28
2023-08-29T20:46:08.487Z,4.65
2023-08-29T20:48:35.806Z,3.58
2023-08-29T20:51:04.063Z,5.45
2023-08-29T20:53:36.265Z,4.82
2023-08-29T20:56:07.004Z,5.70
2023-08-29T20:58:35.474Z,4.28
2023-08-29T21:01:04.313Z,4.95
2023-08-29T21:03:33.813Z,4.70
2023-08-29T21:06:01.261Z,4.75
2023-08-29T21:08:28.800Z,5.88
2023-08-29T21:10:56.162Z,4.35
2023-08-29T21:13:24.914Z,4.75
2023-08-29T21:15:52.359Z,5.68
2023-08-29T21:18:20.597Z,4.35
2023-08-29T21:20:59.943Z,4.63
2023-08-29T21:23:27.928Z,4.70
2023-08-29T21:25:55.566Z,4.65
2023-08-29T21:28:26.331Z,5.43
2023-08-29T21:30:55.527Z,4.28
2023-08-29T21:33:24.010Z,6.45
2023-08-29T21:35:52.074Z,5.93
2023-08-29T21:38:21.913Z,4.38
2023-08-29T21:40:49.261Z,4.22
2023-08-29T21:43:23.193Z,4.53
2023-08-29T21:45:57.356Z,5.60
2023-08-29T21:48:26.090Z,5.15
2023-08-29T21:50:54.321Z,5.32
2023-08-29T21:53:23.030Z,5.25
2023-08-29T21:55:52.266Z,5.63
2023-08-29T21:58:20.187Z,4.63
2023-08-29T22:00:53.600Z,5.78
2023-08-29T22:03:24.915Z,5.03
2023-08-29T22:05:53.353Z,4.70
2023-08-29T22:08:22.077Z,5.53
2023-08-29T22:10:51.268Z,6.03
2023-08-29T22:13:19.409Z,7.28
2023-08-29T22:18:14.330Z,4.57
2023-08-29T22:20:41.853Z,5.65
2023-08-29T22:23:09.159Z,5.70
2023-08-29T22:25:36.769Z,5.35
2023-08-29T22:28:08.939Z,6.40
2023-08-29T22:30:39.538Z,8.75
2023-08-29T22:33:09.338Z,10.05
2023-08-29T22:35:36.767Z,4.75
2023-08-29T22:38:05.086Z,5.45
2023-08-29T22:40:32.552Z,5.47
2023-08-29T22:43:00.178Z,6.28
2023-08-29T22:45:27.731Z,6.20
2023-08-29T22:47:55.011Z,5.88
2023-08-29T22:50:22.341Z,5.63
2023-08-29T22:52:50.617Z,5.07
2023-08-29T22:57:45.070Z,5.00
2023-08-29T23:00:15.619Z,6.95
2023-08-29T23:02:43.343Z,6.32
2023-08-29T23:05:11.168Z,7.22
2023-08-29T23:07:38.432Z,7.07
2023-08-29T23:10:06.413Z,6.88
2023-08-29T23:12:34.155Z,6.70
2023-08-29T23:15:01.470Z,4.97
2023-08-29T23:17:29.356Z,6.25
2023-08-29T23:19:56.606Z,5.50
2023-08-29T23:22:23.917Z,4.80
2023-08-29T23:24:51.153Z,5.85
2023-08-29T23:27:18.781Z,6.45
2023-08-29T23:29:46.041Z,6.70
2023-08-29T23:32:13.286Z,6.75
2023-08-29T23:34:40.587Z,7.20
2023-08-29T23:37:08.241Z,6.72
2023-08-29T23:39:35.536Z,6.82
2023-08-29T23:42:03.091Z,5.63
2023-08-29T23:44:30.603Z,6.55
2023-08-29T23:46:57.980Z,7.47
2023-08-29T23:49:28.290Z,5.65
2023-08-29T23:51:55.745Z,7.20
2023-08-29T23:54:23.485Z,5.53
2023-08-29T23:56:50.708Z,7.28
2023-08-29T23:59:17.968Z,5.85
